| time (UTC) | temp F | wind direction | speed MPH | gust MPH | rain 1hr in | rain 24hr in | rain mn in | humidity % | barometer mb |
| 20260504050024 | 57 | 193 | 4.0 | 7.0 | 0.00 | 0.00 | 0.00 | 55 | 1015.5 |
| 20260504044529 | 57 | 194 | 2.0 | 7.0 | 0.00 | 0.00 | 0.00 | 56 | 1015.7 |
| 20260504043018 | 57 | 194 | 1.0 | 4.0 | 0.00 | 0.00 | 0.00 | 54 | 1015.8 |
| 20260504041521 | 58 | 211 | 1.0 | 5.0 | 0.00 | 0.00 | 0.00 | 53 | 1016.0 |
| 20260504040024 | 58 | 161 | 2.0 | 5.0 | 0.00 | 0.00 | 0.00 | 52 | 1016.1 |
| 20260504034523 | 58 | 221 | 1.0 | 7.0 | 0.00 | 0.00 | 0.00 | 53 | 1016.1 |
| 20260504033028 | 57 | 205 | 1.0 | 2.0 | 0.00 | 0.00 | 0.00 | 53 | 1016.1 |
| 20260504031520 | 56 | 147 | 0.0 | 3.0 | 0.00 | 0.00 | 0.00 | 54 | 1016.1 |
| 20260504030022 | 56 | 219 | 0.0 | 2.0 | 0.00 | 0.00 | 0.00 | 54 | 1016.1 |
| 20260504024528 | 56 | 205 | 0.0 | 0.0 | 0.00 | 0.00 | 0.00 | 54 | 1016.1 |
| 20260504023023 | 57 | 205 | 0.0 | 0.0 | 0.00 | 0.00 | 0.00 | 55 | 1016.1 |
| 20260504021535 | 57 | 205 | 0.0 | 2.0 | 0.00 | 0.00 | 0.00 | 52 | 1016.0 |
| 20260504020025 | 58 | 227 | 0.0 | 2.0 | 0.00 | 0.00 | 0.00 | 51 | 1015.7 |
| 20260504014525 | 58 | 171 | 0.0 | 1.0 | 0.00 | 0.00 | 0.00 | 49 | 1015.6 |
| 20260504013034 | 60 | 176 | 0.0 | 2.0 | 0.00 | 0.00 | 0.00 | 47 | 1015.7 |
| 20260504011530 | 60 | 186 | 0.0 | 2.0 | 0.00 | 0.00 | 0.00 | 46 | 1015.8 |
| 20260504010026 | 61 | 210 | 0.0 | 1.0 | 0.00 | 0.00 | 0.00 | 44 | 1015.9 |
| 20260504004536 | 62 | 225 | 0.0 | 2.0 | 0.00 | 0.00 | 0.00 | 43 | 1015.9 |
| 20260504003025 | 63 | 196 | 0.0 | 5.0 | 0.00 | 0.00 | 0.00 | 41 | 1015.7 |
| 20260504001533 | 64 | 218 | 1.0 | 5.0 | 0.00 | 0.00 | 0.00 | 40 | 1015.7 |
| 20260504000024 | 65 | 177 | 2.0 | 7.0 | 0.00 | 0.00 | 0.00 | 39 | 1016.0 |
| 20260503234528 | 65 | 167 | 1.0 | 8.0 | 0.00 | 0.00 | 0.00 | 40 | 1016.3 |
| 20260503233022 | 66 | 183 | 2.0 | 6.0 | 0.00 | 0.00 | 0.00 | 39 | 1016.2 |
| 20260503231526 | 66 | 180 | 2.0 | 5.0 | 0.00 | 0.00 | 0.00 | 39 | 1016.2 |
| 20260503230004 | 67 | 192 | 3.0 | 8.0 | 0.00 | 0.00 | 0.00 | 38 | 1016.1 |
| 20260503224505 | 68 | 219 | 3.0 | 7.0 | 0.00 | 0.00 | 0.00 | 37 | 1016.4 |
| 20260503223008 | 68 | 200 | 2.0 | 7.0 | 0.00 | 0.00 | 0.00 | 37 | 1016.6 |
| 20260503221503 | 69 | 205 | 2.0 | 5.0 | 0.00 | 0.00 | 0.00 | 36 | 1016.9 |
| 20260503220020 | 68 | 224 | 2.0 | 9.0 | 0.00 | 0.00 | 0.00 | 36 | 1016.9 |
| 20260503214509 | 69 | 352 | 1.0 | 7.0 | 0.00 | 0.00 | 0.00 | 37 | 1017.1 |
| 20260503213025 | 68 | 243 | 2.0 | 10.0 | 0.00 | 0.00 | 0.00 | 36 | 1017.3 |
| 20260503211514 | 69 | 75 | 0.0 | 6.0 | 0.00 | 0.00 | 0.00 | 40 | 1017.6 |
| 20260503210014 | 68 | 207 | 4.0 | 8.0 | 0.00 | 0.00 | 0.00 | 37 | 1017.7 |
| 20260503204505 | 68 | 187 | 3.0 | 8.0 | 0.00 | 0.00 | 0.00 | 38 | 1018.0 |
| 20260503203017 | 67 | 194 | 4.0 | 7.0 | 0.00 | 0.00 | 0.00 | 36 | 1018.3 |
| 20260503201510 | 67 | 226 | 4.0 | 7.0 | 0.00 | 0.00 | 0.00 | 36 | 1018.7 |
| 20260503200024 | 67 | 178 | 2.0 | 8.0 | 0.00 | 0.00 | 0.00 | 38 | 1018.8 |
| 20260503194504 | 66 | 192 | 3.0 | 6.0 | 0.00 | 0.00 | 0.00 | 38 | 1019.1 |
| 20260503193008 | 66 | 235 | 4.0 | 11.0 | 0.00 | 0.00 | 0.00 | 42 | 1019.3 |
| 20260503191507 | 65 | 9 | 2.0 | 9.0 | 0.00 | 0.00 | 0.00 | 37 | 1019.5 |
| 20260503190014 | 65 | 204 | 2.0 | 8.0 | 0.00 | 0.00 | 0.00 | 37 | 1019.7 |
| 20260503184509 | 64 | 202 | 4.0 | 7.0 | 0.00 | 0.00 | 0.00 | 38 | 1019.9 |
| 20260503183008 | 64 | 5 | 1.0 | 8.0 | 0.00 | 0.00 | 0.00 | 36 | 1020.1 |
| 20260503181531 | 64 | 124 | 1.0 | 3.0 | 0.00 | 0.00 | 0.00 | 39 | 1020.3 |
| 20260503180021 | 62 | 260 | 3.0 | 9.0 | 0.00 | 0.00 | 0.00 | 39 | 1020.3 |
| 20260503174508 | 62 | 238 | 3.0 | 6.0 | 0.00 | 0.00 | 0.00 | 42 | 1020.5 |
| 20260503173004 | 62 | 197 | 5.0 | 7.0 | 0.00 | 0.00 | 0.00 | 40 | 1020.8 |
| 20260503171521 | 61 | 187 | 2.0 | 6.0 | 0.00 | 0.00 | 0.00 | 41 | 1021.0 |
| 20260503081510 | 40 | 16 | 0.0 | 0.0 | 0.00 | 0.00 | 0.00 | 93 | 1020.1 |